Time;durP1;ratioP1;P1;durP2;ratioP2;P2;SDS_P1;SDS_P2;PMS_P1;PMS_P2;Temp;Humidity;BMP_temperature;BMP_pressure;BME280_temperature;BME280_humidity;BME280_pressure;Samples;Min_cycle;Max_cycle;Signal;HPM_P1;HPM_P2
2023/09/01 00:01:31;;;;;;;0.30;0.25;;;;;;;18.66;60.20;99845.28;5333759;26;20367;-91
2023/09/01 00:03:56;;;;;;;0.00;0.00;;;;;;;18.64;60.20;99843.69;5333428;26;20123;-91
2023/09/01 00:06:21;;;;;;;0.20;0.10;;;;;;;18.56;60.20;99838.88;5333230;26;20055;-91
2023/09/01 00:08:47;;;;;;;0.15;0.05;;;;;;;18.64;60.20;99844.53;5333512;26;20118;-91
2023/09/01 00:11:12;;;;;;;0.00;0.00;;;;;;;18.69;60.21;99845.12;5333388;26;20414;-90
2023/09/01 00:13:38;;;;;;;0.15;0.15;;;;;;;18.70;60.21;99848.59;5333510;26;20249;-92
2023/09/01 00:16:04;;;;;;;0.10;0.10;;;;;;;18.68;60.20;99850.47;5370731;26;20298;-91
2023/09/01 00:18:30;;;;;;;0.10;0.10;;;;;;;18.65;60.20;99848.03;5333859;26;20455;-91
2023/09/01 00:21:03;;;;;;;1.08;0.52;;;;;;;18.51;60.19;99851.50;5333945;26;20064;-91
2023/09/01 00:23:29;;;;;;;0.10;0.10;;;;;;;18.39;60.19;99857.53;5333825;26;20082;-91
2023/09/01 00:25:55;;;;;;;0.43;0.43;;;;;;;18.47;60.19;99850.03;5333457;26;20420;-90
2023/09/01 00:28:21;;;;;;;1.25;0.20;;;;;;;18.40;60.19;99854.81;5333849;26;20759;-90
2023/09/01 00:30:56;;;;;;;0.05;0.05;;;;;;;18.40;60.19;99854.81;5333971;26;20070;-89
2023/09/01 00:33:24;;;;;;;0.28;0.10;;;;;;;18.40;60.19;99853.97;5334372;26;20051;-89
2023/09/01 00:35:51;;;;;;;0.03;0.03;;;;;;;18.10;60.17;99854.09;5334582;26;20064;-90
2023/09/01 00:38:16;;;;;;;0.00;0.00;;;;;;;18.23;60.18;99851.56;5352424;26;20059;-90
2023/09/01 00:40:41;;;;;;;0.17;0.17;;;;;;;18.22;60.17;99858.59;5333765;26;20371;-92
2023/09/01 00:43:07;;;;;;;0.00;0.00;;;;;;;18.16;60.17;99858.13;5333752;26;20080;-91
2023/09/01 00:45:32;;;;;;;0.10;0.10;;;;;;;17.90;60.16;99857.91;5333912;26;20210;-90
2023/09/01 00:47:58;;;;;;;0.08;0.08;;;;;;;17.83;60.15;99863.66;5333708;26;20067;-91
2023/09/01 00:50:23;;;;;;;0.00;0.00;;;;;;;17.70;60.15;99864.37;5333653;26;20107;-91
2023/09/01 00:52:48;;;;;;;0.05;0.05;;;;;;;17.71;60.15;99870.47;5333333;26;20104;-91
2023/09/01 00:55:14;;;;;;;0.00;0.00;;;;;;;17.74;60.15;99878.19;5333279;26;20074;-92
2023/09/01 00:57:39;;;;;;;0.00;0.00;;;;;;;17.70;60.15;99868.78;5333803;26;20448;-91
2023/09/01 01:00:05;;;;;;;0.00;0.00;;;;;;;17.80;60.16;99869.97;5332811;26;25488;-91
2023/09/01 01:02:31;;;;;;;0.93;0.10;;;;;;;17.77;60.14;99865.72;5333817;26;20827;-91
2023/09/01 01:04:56;;;;;;;0.20;0.10;;;;;;;17.79;60.16;99863.84;5333714;26;20052;-92
2023/09/01 01:07:38;;;;;;;0.20;0.20;;;;;;;17.71;60.15;99873.13;5333770;26;20111;-92
2023/09/01 01:10:11;;;;;;;0.08;0.08;;;;;;;17.67;60.14;99866.31;5335016;26;20729;-91
2023/09/01 01:12:48;;;;;;;0.00;0.00;;;;;;;17.55;60.14;99878.44;5371748;26;20052;-92
2023/09/01 01:15:14;;;;;;;0.00;0.00;;;;;;;17.66;60.14;99872.53;5334501;26;20605;-92
2023/09/01 01:17:41;;;;;;;0.00;0.00;;;;;;;17.65;60.14;99870.81;5333892;26;20068;-92
2023/09/01 01:20:38;;;;;;;0.00;0.00;;;;;;;17.42;60.13;99874.81;5333979;26;20064;-92
2023/09/01 01:23:11;;;;;;;0.82;0.75;;;;;;;17.39;60.12;99875.84;5355039;26;20100;-92
2023/09/01 01:25:37;;;;;;;0.30;0.20;;;;;;;17.33;60.13;99873.56;5333950;26;20071;-93
2023/09/01 01:28:07;;;;;;;0.10;0.10;;;;;;;17.28;60.12;99875.62;5333906;26;20075;-92
2023/09/01 01:30:32;;;;;;;;;;;;;;;17.30;60.12;99875.53;5334243;26;20082;-92
2023/09/01 01:32:57;;;;;;;0.00;0.00;;;;;;;17.52;60.13;99875.12;5351535;26;26648;-92
2023/09/01 01:35:45;;;;;;;0.00;0.00;;;;;;;17.29;60.13;99871.22;5333111;26;20094;-92
2023/09/01 01:38:27;;;;;;;0.00;0.00;;;;;;;17.32;60.13;99868.41;5352354;26;20060;-92
2023/09/01 01:40:58;;;;;;;0.00;0.00;;;;;;;17.34;60.13;99867.38;5333715;26;20028;-93
2023/09/01 01:43:24;;;;;;;23.98;1.12;;;;;;;17.26;60.12;99859.03;5333646;26;20048;-92
2023/09/01 01:45:49;;;;;;;0.55;0.30;;;;;;;17.37;60.13;99864.56;5332582;26;20452;-92
2023/09/01 01:48:15;;;;;;;0.20;0.20;;;;;;;17.17;60.12;99868.31;5332901;26;20103;-90
2023/09/01 01:50:43;;;;;;;1.20;0.43;;;;;;;17.28;60.12;99866.88;5351485;26;20103;-91
2023/09/01 01:53:08;;;;;;;0.00;0.00;;;;;;;17.18;60.12;99871.81;5334237;26;20768;-91
2023/09/01 01:55:34;;;;;;;0.05;0.05;;;;;;;17.05;60.12;99876.09;5333902;26;20090;-91
2023/09/01 01:58:00;;;;;;;3.50;0.40;;;;;;;17.05;60.11;99871.66;5333201;26;20063;-91
2023/09/01 02:00:27;;;;;;;0.00;0.00;;;;;;;16.79;60.10;99881.00;5333238;26;20068;-91
2023/09/01 02:02:53;;;;;;;0.00;0.00;;;;;;;16.78;60.10;99884.56;5334019;26;20736;-91
2023/09/01 02:05:19;;;;;;;0.17;0.17;;;;;;;16.69;60.09;99890.31;5333709;26;20075;-91
2023/09/01 02:07:44;;;;;;;0.00;0.00;;;;;;;16.69;60.09;99890.31;5333716;26;20056;-91
2023/09/01 02:10:10;;;;;;;0.55;0.55;;;;;;;16.54;60.08;99889.34;5333424;26;20060;-91
2023/09/01 02:12:35;;;;;;;0.00;0.00;;;;;;;16.70;60.09;99891.19;5333542;26;20109;-91
2023/09/01 02:15:01;;;;;;;0.00;0.00;;;;;;;16.52;60.08;99900.88;5333650;26;20065;-91
2023/09/01 02:17:27;;;;;;;0.00;0.00;;;;;;;16.64;60.09;99907.25;5333724;26;20424;-92
2023/09/01 02:19:52;;;;;;;0.00;0.00;;;;;;;16.69;60.09;99898.22;5334939;26;20125;-91
2023/09/01 02:22:17;;;;;;;0.00;0.00;;;;;;;16.68;60.09;99900.94;5353355;26;20118;-91
2023/09/01 02:24:43;;;;;;;0.40;0.40;;;;;;;16.47;60.08;99906.38;5334661;26;20369;-90
2023/09/01 02:27:08;;;;;;;0.08;0.08;;;;;;;16.57;60.09;99912.00;5334542;26;20071;-90
2023/09/01 02:29:34;;;;;;;0.00;0.00;;;;;;;16.57;60.09;99909.37;5334893;26;20059;-90
2023/09/01 02:31:59;;;;;;;0.17;0.13;;;;;;;16.53;60.09;99906.03;5333870;26;32056;-89
2023/09/01 02:34:24;;;;;;;0.20;0.20;;;;;;;16.54;60.08;99906.88;5334601;26;20107;-91
2023/09/01 02:36:50;;;;;;;0.00;0.00;;;;;;;16.44;60.08;99903.06;5333133;26;20094;-89
2023/09/01 02:39:17;;;;;;;0.00;0.00;;;;;;;16.21;60.07;99904.28;5391188;26;24191;-91
2023/09/01 02:41:42;;;;;;;0.00;0.00;;;;;;;16.45;60.08;99908.25;5335226;26;20048;-91
2023/09/01 02:44:07;;;;;;;0.00;0.00;;;;;;;16.33;60.08;99903.66;5334669;26;20083;-91
2023/09/01 02:46:33;;;;;;;0.20;0.20;;;;;;;16.23;60.08;99910.31;5351591;26;32753;-92
2023/09/01 02:48:58;;;;;;;0.17;0.17;;;;;;;16.13;60.07;99906.47;5333173;26;35747;-91
2023/09/01 02:51:24;;;;;;;0.00;0.00;;;;;;;16.16;60.07;99907.16;5333998;26;20103;-92
2023/09/01 02:53:49;;;;;;;0.00;0.00;;;;;;;16.13;60.07;99907.34;5334749;26;20073;-93
2023/09/01 02:56:14;;;;;;;0.40;0.40;;;;;;;16.14;60.07;99903.78;5334132;26;20056;-90
2023/09/01 02:58:40;;;;;;;2.25;1.05;;;;;;;16.08;60.06;99903.22;5334422;26;20056;-92
2023/09/01 03:01:07;;;;;;;0.17;0.17;;;;;;;16.10;60.06;99897.00;5334411;26;20113;-91
2023/09/01 03:03:34;;;;;;;0.00;0.00;;;;;;;16.08;60.06;99895.34;5353153;26;20058;-92
2023/09/01 03:05:59;;;;;;;0.30;0.25;;;;;;;16.10;60.06;99899.63;5334784;26;20068;-93
2023/09/01 03:08:25;;;;;;;0.32;0.32;;;;;;;16.10;60.07;99899.63;5334627;26;20111;-92
2023/09/01 03:10:51;;;;;;;0.00;0.00;;;;;;;16.06;60.06;99898.06;5334910;26;20060;-91
2023/09/01 03:13:16;;;;;;;0.10;0.10;;;;;;;16.22;60.07;99908.63;5333596;26;31224;-91
2023/09/01 03:15:42;;;;;;;1.55;0.82;;;;;;;16.37;60.07;99909.59;5334534;26;20060;-90
2023/09/01 03:18:09;;;;;;;0.05;0.05;;;;;;;16.40;60.09;99901.53;5333962;26;26614;-90
2023/09/01 03:20:34;;;;;;;0.00;0.00;;;;;;;16.20;60.07;99903.44;5334969;26;20107;-91
2023/09/01 03:23:00;;;;;;;0.28;0.15;;;;;;;16.09;60.07;99904.91;5333901;26;20048;-91
2023/09/01 03:25:25;;;;;;;0.00;0.00;;;;;;;16.10;60.06;99901.41;5334395;26;20056;-91
2023/09/01 03:27:50;;;;;;;0.43;0.43;;;;;;;16.09;60.06;99905.78;5352594;26;20055;-91
2023/09/01 03:30:16;;;;;;;0.40;0.40;;;;;;;15.96;60.06;99916.06;5333375;26;28128;-91
2023/09/01 03:32:41;;;;;;;0.00;0.00;;;;;;;15.94;60.06;99912.69;5334177;26;20077;-91
2023/09/01 03:35:07;;;;;;;0.00;0.00;;;;;;;16.02;60.06;99909.66;5352311;26;20063;-91
2023/09/01 03:37:33;;;;;;;0.47;0.40;;;;;;;15.87;60.05;99899.97;5334883;26;20075;-90
2023/09/01 03:39:59;;;;;;;0.20;0.20;;;;;;;15.95;60.06;99903.88;5334555;26;20071;-90
2023/09/01 03:42:25;;;;;;;0.00;0.00;;;;;;;15.80;60.05;99904.66;5334492;26;20082;-90
2023/09/01 03:44:50;;;;;;;0.00;0.00;;;;;;;15.76;60.05;99915.38;5334260;26;20044;-90
2023/09/01 03:47:15;;;;;;;0.05;0.05;;;;;;;15.86;60.04;99916.63;5334072;26;20434;-92
2023/09/01 03:49:41;;;;;;;2.17;1.30;;;;;;;15.93;60.06;99910.97;5333424;26;27329;-90
2023/09/01 03:52:06;;;;;;;0.13;0.13;;;;;;;15.81;60.05;99923.88;5333986;26;20102;-90
2023/09/01 03:54:32;;;;;;;0.00;0.00;;;;;;;15.86;60.06;99924.50;5333941;26;20104;-89
2023/09/01 03:56:58;;;;;;;0.00;0.00;;;;;;;15.94;60.06;99920.56;5334417;26;20077;-90
2023/09/01 03:59:23;;;;;;;0.00;0.00;;;;;;;15.90;60.05;99924.28;5334085;26;20075;-89
2023/09/01 04:01:48;;;;;;;0.10;0.10;;;;;;;15.87;60.05;99926.22;5329100;26;105980;-88
2023/09/01 04:04:14;;;;;;;0.37;0.37;;;;;;;16.07;60.06;99922.53;5333731;26;20056;-90
2023/09/01 04:06:40;;;;;;;0.10;0.10;;;;;;;15.91;60.05;99920.72;5333335;26;20052;-89
2023/09/01 04:09:05;;;;;;;0.00;0.00;;;;;;;15.97;60.05;99922.16;5334163;26;20052;-90
2023/09/01 04:11:31;;;;;;;0.00;0.00;;;;;;;16.18;60.07;99928.94;5334104;26;20051;-89
2023/09/01 04:13:56;;;;;;;0.73;0.70;;;;;;;15.97;60.05;99922.16;5333883;26;20060;-89
2023/09/01 04:16:22;;;;;;;0.30;0.30;;;;;;;16.11;60.06;99922.31;5334081;26;20104;-90
2023/09/01 04:18:48;;;;;;;0.00;0.00;;;;;;;16.10;60.06;99925.03;5334320;26;20048;-90
2023/09/01 04:21:13;;;;;;;0.00;0.00;;;;;;;16.06;60.06;99926.09;5334064;26;20067;-90
2023/09/01 04:23:40;;;;;;;0.00;0.00;;;;;;;16.02;60.07;99933.28;5333970;26;20431;-92
2023/09/01 04:26:06;;;;;;;0.15;0.15;;;;;;;16.24;60.08;99931.25;5335010;26;20127;-90
2023/09/01 04:28:31;;;;;;;0.00;0.00;;;;;;;16.22;60.07;99933.09;5352875;26;20444;-90
2023/09/01 04:30:59;;;;;;;0.25;0.10;;;;;;;16.31;60.08;99934.38;5333778;26;27356;-91
2023/09/01 04:33:27;;;;;;;0.43;0.15;;;;;;;16.38;60.07;99929.69;5353380;26;20060;-92
2023/09/01 04:36:00;;;;;;;0.15;0.15;;;;;;;16.62;60.08;99927.53;5334538;26;20079;-91
2023/09/01 04:38:25;;;;;;;0.30;0.10;;;;;;;16.63;60.09;99916.91;5334428;26;20051;-90
2023/09/01 04:40:58;;;;;;;0.20;0.20;;;;;;;16.63;60.09;99927.44;5334164;26;20110;-91
2023/09/01 04:43:27;;;;;;;2.00;0.52;;;;;;;17.14;60.11;99929.00;5335338;26;20075;-91
2023/09/01 04:45:56;;;;;;;0.00;0.00;;;;;;;17.19;60.12;99924.31;5334295;26;20059;-91
2023/09/01 04:48:21;;;;;;;0.22;0.22;;;;;;;17.02;60.11;99920.94;5334515;26;20056;-91
2023/09/01 04:50:47;;;;;;;0.20;0.08;;;;;;;17.01;60.11;99919.25;5333901;26;20094;-90
2023/09/01 04:53:12;;;;;;;0.70;0.62;;;;;;;17.13;60.11;99922.06;5352878;26;20067;-90
2023/09/01 04:55:38;;;;;;;0.00;0.00;;;;;;;17.58;60.14;99922.16;5334139;26;20466;-91
2023/09/01 04:58:03;;;;;;;0.00;0.00;;;;;;;17.63;60.14;99914.81;5333630;26;20071;-87
2023/09/01 05:00:29;;;;;;;0.15;0.15;;;;;;;17.48;60.14;99919.19;5352596;26;20058;-88
2023/09/01 05:02:54;;;;;;;0.00;0.00;;;;;;;17.55;60.13;99917.06;5333202;26;27333;-88
2023/09/01 05:05:19;;;;;;;1.25;0.93;;;;;;;17.50;60.13;99918.16;5334323;26;20078;-88
2023/09/01 05:07:45;;;;;;;0.00;0.00;;;;;;;17.60;60.14;99921.12;5333430;26;20082;-88
2023/09/01 05:10:10;;;;;;;0.20;0.20;;;;;;;17.73;60.15;99926.53;5332589;26;27894;-89
2023/09/01 05:12:36;;;;;;;0.00;0.00;;;;;;;17.98;60.16;99926.81;5333632;26;20107;-90
2023/09/01 05:15:01;;;;;;;0.30;0.25;;;;;;;18.09;60.17;99923.50;5333583;26;21211;-89
2023/09/01 05:17:27;;;;;;;0.03;0.03;;;;;;;18.16;60.18;99930.09;5333787;26;20070;-89
2023/09/01 05:19:53;;;;;;;0.20;0.20;;;;;;;18.17;60.18;99938.84;5334355;26;20407;-90
2023/09/01 05:22:18;;;;;;;3.03;0.65;;;;;;;18.02;60.16;99936.22;5352525;26;20068;-90
2023/09/01 05:24:44;;;;;;;0.10;0.00;;;;;;;18.27;60.17;99934.75;5333626;26;20077;-91
2023/09/01 05:27:09;;;;;;;0.22;0.22;;;;;;;18.22;60.17;99936.81;5352376;26;20075;-90
2023/09/01 05:29:35;;;;;;;0.20;0.20;;;;;;;18.36;60.18;99931.53;5333739;26;20043;-90
2023/09/01 05:32:00;;;;;;;0.20;0.20;;;;;;;18.05;60.16;99933.37;5333671;26;20414;-90
2023/09/01 05:34:26;;;;;;;0.25;0.20;;;;;;;18.16;60.18;99935.38;5333504;26;20071;-90
2023/09/01 05:36:52;;;;;;;0.10;0.10;;;;;;;18.12;60.17;99936.50;5334369;26;20073;-91
2023/09/01 05:39:17;;;;;;;0.00;0.00;;;;;;;18.15;60.17;99938.09;5333401;26;22156;-91
2023/09/01 05:41:42;;;;;;;0.00;0.00;;;;;;;18.41;60.19;99932.09;5334042;26;20339;-90
2023/09/01 05:44:08;;;;;;;0.00;0.00;;;;;;;18.69;60.20;99937.41;5352664;26;20142;-91
2023/09/01 05:46:33;;;;;;;0.32;0.32;;;;;;;18.49;60.19;99934.28;5334302;26;20082;-91
2023/09/01 05:48:59;;;;;;;0.00;0.00;;;;;;;18.71;60.21;99929.41;5333317;26;30699;-90
2023/09/01 05:51:24;;;;;;;0.10;0.10;;;;;;;18.69;60.21;99940.03;5333440;26;24911;-90
2023/09/01 05:53:49;;;;;;;0.00;0.00;;;;;;;18.92;60.21;99940.34;5334104;26;20103;-90
2023/09/01 05:56:16;;;;;;;0.00;0.00;;;;;;;18.97;60.21;99947.06;5334470;26;20091;-90
2023/09/01 05:58:41;;;;;;;0.85;0.30;;;;;;;19.09;60.22;99945.41;5335346;26;20043;-90
2023/09/01 06:01:07;;;;;;;0.00;0.00;;;;;;;19.18;60.22;99946.63;5334830;26;20305;-90
2023/09/01 06:03:32;;;;;;;0.00;0.00;;;;;;;19.28;60.23;99947.72;5334944;26;20428;-91
2023/09/01 06:05:57;;;;;;;0.00;0.00;;;;;;;19.30;60.22;99946.69;5335044;26;20052;-91
2023/09/01 06:08:23;;;;;;;0.00;0.00;;;;;;;19.41;60.24;99946.00;5334999;26;20043;-91
2023/09/01 06:10:48;;;;;;;0.00;0.00;;;;;;;19.48;60.24;99942.00;5334370;26;20059;-91
2023/09/01 06:13:14;;;;;;;0.03;0.03;;;;;;;19.68;60.25;99939.87;5334684;26;20063;-91
2023/09/01 06:15:39;;;;;;;0.00;0.00;;;;;;;19.75;60.25;99934.06;5333606;26;23963;-92
2023/09/01 06:18:05;;;;;;;0.00;0.00;;;;;;;19.78;60.26;99933.84;5334895;26;20048;-91
2023/09/01 06:20:30;;;;;;;0.43;0.10;;;;;;;19.88;60.26;99939.37;5335046;26;20056;-90
2023/09/01 06:22:56;;;;;;;0.00;0.00;;;;;;;20.05;60.27;99943.50;5335025;26;20063;-91
2023/09/01 06:25:21;;;;;;;0.17;0.17;;;;;;;20.20;60.28;99942.47;5335134;26;20429;-91
2023/09/01 06:27:47;;;;;;;0.10;0.10;;;;;;;20.35;60.29;99935.28;5353355;26;20051;-91
2023/09/01 06:30:12;;;;;;;0.17;0.17;;;;;;;20.44;60.29;99937.31;5335009;26;20100;-91
2023/09/01 06:32:37;;;;;;;0.08;0.08;;;;;;;20.42;60.29;99934.78;5334768;26;20073;-91
2023/09/01 06:35:03;;;;;;;0.20;0.17;;;;;;;20.46;60.28;99933.63;5334117;26;21114;-91
2023/09/01 06:37:29;;;;;;;0.00;0.00;;;;;;;20.56;60.30;99932.94;5334550;26;20048;-92
2023/09/01 06:39:54;;;;;;;0.00;0.00;;;;;;;20.67;60.30;99927.78;5353087;26;20068;-92
2023/09/01 06:42:20;;;;;;;0.00;0.00;;;;;;;20.91;60.31;99938.41;5334696;26;20063;-91
2023/09/01 06:44:45;;;;;;;0.00;0.00;;;;;;;21.10;60.33;99936.12;5334647;26;20060;-91
2023/09/01 06:47:11;;;;;;;0.10;0.10;;;;;;;21.30;60.33;99942.66;5334022;26;20107;-91
2023/09/01 06:49:36;;;;;;;0.00;0.00;;;;;;;21.41;60.33;99940.03;5334971;26;20421;-92
2023/09/01 06:52:02;;;;;;;0.90;0.32;;;;;;;21.42;60.34;99939.94;5353242;26;20079;-91
2023/09/01 06:54:27;;;;;;;0.08;0.03;;;;;;;21.49;60.35;99936.81;5334484;26;20075;-92
2023/09/01 06:56:53;;;;;;;0.60;0.43;;;;;;;21.72;60.36;99944.75;5334903;26;20043;-91
2023/09/01 06:59:19;;;;;;;0.08;0.08;;;;;;;21.87;60.36;99949.88;5334746;26;20471;-92
2023/09/01 07:01:44;;;;;;;0.00;0.00;;;;;;;22.13;60.38;99955.87;5334875;26;20077;-91
2023/09/01 07:04:10;;;;;;;0.00;0.00;;;;;;;22.19;60.38;99958.88;5333440;26;30390;-90
2023/09/01 07:06:35;;;;;;;0.00;0.00;;;;;;;22.32;60.39;99961.44;5334556;26;20225;-91
2023/09/01 07:09:01;;;;;;;0.10;0.00;;;;;;;22.40;60.39;99966.16;5334100;26;20048;-91
2023/09/01 07:11:26;;;;;;;0.30;0.20;;;;;;;22.64;60.41;99957.13;5335129;26;20111;-91
2023/09/01 07:13:51;;;;;;;0.22;0.22;;;;;;;22.79;60.41;99962.19;5334627;26;20051;-91
2023/09/01 07:16:17;;;;;;;0.93;0.77;;;;;;;22.88;60.41;99958.81;5334657;26;20098;-92
2023/09/01 07:18:42;;;;;;;1.30;1.10;;;;;;;22.90;60.42;99955.06;5353362;26;20102;-91
2023/09/01 07:21:08;;;;;;;0.13;0.13;;;;;;;23.14;60.43;99962.03;5334694;26;20056;-92
2023/09/01 07:23:33;;;;;;;0.00;0.00;;;;;;;23.13;60.43;99955.03;5334502;26;20108;-92
2023/09/01 07:25:59;;;;;;;0.00;0.00;;;;;;;23.21;60.44;99965.91;5334987;26;20456;-91
2023/09/01 07:28:24;;;;;;;0.00;0.00;;;;;;;23.48;60.45;99960.16;5334519;26;20134;-91
2023/09/01 07:30:50;;;;;;;0.10;0.10;;;;;;;23.62;60.46;99957.22;5334873;26;20078;-91
2023/09/01 07:33:16;;;;;;;0.10;0.10;;;;;;;23.63;60.46;99960.72;5334292;26;20092;-91
2023/09/01 07:35:50;;;;;;;0.00;0.00;;;;;;;23.57;60.46;99970.87;5330855;26;20739;-91
2023/09/01 07:38:16;;;;;;;0.10;0.10;;;;;;;23.70;60.46;99967.22;5331111;26;20053;-92
2023/09/01 07:40:42;;;;;;;0.22;0.10;;;;;;;23.79;60.46;99969.13;5312498;26;20429;-92
2023/09/01 07:43:07;;;;;;;0.20;0.20;;;;;;;24.14;60.49;99963.50;5330681;26;20044;-92
2023/09/01 07:45:33;;;;;;;0.20;0.00;;;;;;;24.12;60.48;99962.75;5312573;26;20351;-91
2023/09/01 07:47:58;;;;;;;0.15;0.15;;;;;;;24.25;60.49;99967.91;5312299;26;20482;-91
2023/09/01 07:50:24;;;;;;;0.00;0.00;;;;;;;24.25;60.49;99957.25;5312135;26;20108;-91
2023/09/01 07:52:52;;;;;;;0.15;0.15;;;;;;;24.46;60.51;99961.59;5312303;26;20086;-92
2023/09/01 07:55:18;;;;;;;0.00;0.00;;;;;;;24.66;60.51;99962.53;5312166;26;20051;-92
2023/09/01 07:57:43;;;;;;;0.45;0.28;;;;;;;24.61;60.51;99961.28;5312275;26;20105;-91
2023/09/01 08:00:09;;;;;;;0.52;0.40;;;;;;;24.68;60.52;99960.59;5312353;26;20460;-92
2023/09/01 08:02:35;;;;;;;0.10;0.10;;;;;;;24.90;60.52;99954.22;5312694;26;20048;-92
2023/09/01 08:05:03;;;;;;;0.55;0.32;;;;;;;25.25;60.54;99947.59;5312446;26;20107;-92
2023/09/01 08:07:30;;;;;;;0.32;0.32;;;;;;;25.12;60.53;99952.34;5313004;26;20075;-92
2023/09/01 08:09:55;;;;;;;0.37;0.37;;;;;;;25.28;60.55;99952.66;5312608;26;20074;-93
2023/09/01 08:12:21;;;;;;;0.00;0.00;;;;;;;25.57;60.56;99971.34;5330742;26;20338;-93
2023/09/01 08:14:46;;;;;;;0.00;0.00;;;;;;;25.96;60.58;99961.53;5312010;26;20099;-92
2023/09/01 08:17:11;;;;;;;1.02;0.40;;;;;;;26.21;60.59;99968.09;5330022;26;20109;-92
2023/09/01 08:19:40;;;;;;;0.00;0.00;;;;;;;26.41;60.61;99963.59;5312327;26;20076;-92
2023/09/01 08:22:05;;;;;;;0.98;0.85;;;;;;;26.60;60.61;99959.03;5313144;26;20104;-92
2023/09/01 08:24:31;;;;;;;0.00;0.00;;;;;;;26.74;60.62;99964.88;5312302;26;20048;-92
2023/09/01 08:26:56;;;;;;;1.10;0.62;;;;;;;26.86;60.62;99964.53;5311787;26;20703;-92
2023/09/01 08:29:22;;;;;;;3.33;0.52;;;;;;;26.91;60.62;99962.25;5312039;26;20059;-92
2023/09/01 08:31:47;;;;;;;0.00;0.00;;;;;;;27.05;60.64;99960.94;5312371;26;20097;-92
2023/09/01 08:34:12;;;;;;;0.00;0.00;;;;;;;27.15;60.65;99959.06;5311193;26;30092;-91
2023/09/01 08:36:38;;;;;;;0.15;0.15;;;;;;;27.11;60.63;99963.03;5326934;26;20083;-92
2023/09/01 08:39:04;;;;;;;0.15;0.15;;;;;;;27.02;60.63;99955.91;5333734;26;26398;-92
2023/09/01 08:41:29;;;;;;;0.47;0.47;;;;;;;27.09;60.64;99962.31;5334484;26;20051;-93
2023/09/01 08:43:56;;;;;;;0.70;0.70;;;;;;;27.22;60.65;99959.31;5333833;26;28683;-93
2023/09/01 08:46:21;;;;;;;0.10;0.10;;;;;;;27.16;60.64;99955.37;5334305;26;20063;-91
2023/09/01 08:48:47;;;;;;;1.08;0.57;;;;;;;27.13;60.64;99955.69;5333831;26;20071;-92
2023/09/01 08:51:14;;;;;;;0.13;0.13;;;;;;;27.38;60.65;99954.13;5333677;26;23356;-92
2023/09/01 08:53:40;;;;;;;0.10;0.10;;;;;;;27.56;60.66;99959.47;5334731;26;20051;-92
2023/09/01 08:56:05;;;;;;;0.10;0.10;;;;;;;27.68;60.67;99960.97;5333744;26;25722;-93
2023/09/01 08:58:30;;;;;;;0.10;0.10;;;;;;;27.90;60.69;99951.59;5334448;26;20157;-92
2023/09/01 09:00:56;;;;;;;0.00;0.00;;;;;;;28.13;60.69;99946.59;5334489;26;20092;-93
2023/09/01 09:03:22;;;;;;;0.00;0.00;;;;;;;28.22;60.71;99956.37;5334173;26;20051;-92
2023/09/01 09:05:47;;;;;;;0.00;0.00;;;;;;;28.25;60.70;99952.56;5333917;26;25035;-93
2023/09/01 09:08:12;;;;;;;0.17;0.17;;;;;;;28.30;60.70;99945.72;5334184;26;20060;-92
2023/09/01 09:10:40;;;;;;;0.00;0.00;;;;;;;28.33;60.70;99945.41;5334316;26;20076;-92
2023/09/01 09:13:28;;;;;;;0.70;0.35;;;;;;;28.28;60.69;99950.41;5334264;26;20051;-92
2023/09/01 09:16:13;;;;;;;0.52;0.20;;;;;;;28.52;60.71;99943.50;5335344;26;20735;-91
2023/09/01 09:18:43;;;;;;;0.40;0.40;;;;;;;28.64;60.72;99945.78;5352796;26;20039;-91
2023/09/01 09:21:21;;;;;;;;;;;;;;;28.46;60.72;99945.00;5335076;26;20019;-90
2023/09/01 09:23:47;;;;;;;0.90;0.65;;;;;;;28.62;60.71;99949.59;5352966;26;19967;-90
2023/09/01 09:26:12;;;;;;;0.50;0.50;;;;;;;28.51;60.71;99948.03;5333886;26;20082;-91
2023/09/01 09:28:38;;;;;;;0.00;0.00;;;;;;;28.61;60.71;99942.53;5333667;26;20347;-90
2023/09/01 09:31:03;;;;;;;0.20;0.15;;;;;;;28.80;60.73;99939.63;5334230;26;20059;-90
2023/09/01 09:33:30;;;;;;;0.15;0.15;;;;;;;28.85;60.74;99940.00;5334125;26;20470;-91
2023/09/01 09:35:55;;;;;;;0.17;0.10;;;;;;;29.02;60.74;99941.75;5352897;26;20075;-90
2023/09/01 09:38:21;;;;;;;0.22;0.00;;;;;;;29.05;60.74;99945.94;5333732;26;20101;-90
2023/09/01 09:41:07;;;;;;;0.10;0.10;;;;;;;29.09;60.73;99947.28;5353360;26;20051;-91
2023/09/01 09:43:43;;;;;;;0.00;0.00;;;;;;;29.06;60.74;99936.06;5351867;26;20048;-91
2023/09/01 09:46:08;;;;;;;0.00;0.00;;;;;;;29.25;60.76;99927.72;5334386;26;20075;-90
2023/09/01 09:48:34;;;;;;;0.28;0.25;;;;;;;29.29;60.75;99935.28;5333085;26;32448;-90
2023/09/01 09:51:00;;;;;;;0.00;0.00;;;;;;;29.32;60.75;99936.78;5334149;26;20082;-91
2023/09/01 09:53:26;;;;;;;0.37;0.28;;;;;;;29.50;60.77;99936.69;5334274;26;20059;-90
2023/09/01 09:55:51;;;;;;;0.10;0.10;;;;;;;29.65;60.78;99935.03;5333565;26;20075;-90
2023/09/01 09:58:17;;;;;;;0.00;0.00;;;;;;;29.68;60.77;99928.47;5334247;26;20132;-91
2023/09/01 10:00:51;;;;;;;0.08;0.08;;;;;;;29.80;60.79;99929.81;5334214;26;20400;-90
2023/09/01 10:03:16;;;;;;;0.30;0.30;;;;;;;29.92;60.78;99931.16;5353349;26;20617;-90
2023/09/01 10:05:42;;;;;;;2.42;0.68;;;;;;;30.10;60.80;99929.16;5333979;26;20067;-92
2023/09/01 10:08:08;;;;;;;0.40;0.20;;;;;;;30.24;60.80;99930.28;5333930;26;20119;-91
2023/09/01 10:10:34;;;;;;;0.00;0.00;;;;;;;30.34;60.81;99922.06;5334078;26;20099;-90
2023/09/01 10:13:06;;;;;;;0.03;0.00;;;;;;;30.45;60.82;99924.37;5333903;26;20629;-90
2023/09/01 10:15:32;;;;;;;0.10;0.05;;;;;;;30.38;60.81;99928.75;5334069;26;20074;-89
2023/09/01 10:18:05;;;;;;;0.00;0.00;;;;;;;30.34;60.81;99930.97;5334133;26;20112;-90
2023/09/01 10:20:34;;;;;;;0.10;0.10;;;;;;;30.50;60.81;99919.31;5335083;26;20123;-91
2023/09/01 10:23:06;;;;;;;0.05;0.05;;;;;;;30.65;60.82;99919.47;5334036;26;20056;-89
2023/09/01 10:25:34;;;;;;;0.20;0.20;;;;;;;30.80;60.83;99913.19;5334280;26;20063;-90
2023/09/01 10:28:00;;;;;;;0.10;0.10;;;;;;;31.01;60.84;99915.28;5334316;26;20070;-90
2023/09/01 10:30:26;;;;;;;0.43;0.40;;;;;;;31.05;60.85;99915.75;5352446;26;20066;-90
2023/09/01 10:33:04;;;;;;;0.00;0.00;;;;;;;31.03;60.84;99923.16;5333349;26;20077;-90
2023/09/01 10:35:51;;;;;;;0.90;0.70;;;;;;;30.85;60.84;99921.56;5334237;26;20057;-90
2023/09/01 10:38:35;;;;;;;0.17;0.17;;;;;;;30.98;60.84;99920.13;5335170;26;20082;-89
2023/09/01 10:41:00;;;;;;;0.20;0.15;;;;;;;31.10;60.85;99916.87;5354795;26;20055;-88
2023/09/01 10:43:37;;;;;;;0.20;0.20;;;;;;;31.11;60.85;99912.34;5334278;26;20098;-88
2023/09/01 10:46:12;;;;;;;0.15;0.00;;;;;;;31.17;60.86;99911.66;5371145;26;20083;-89
2023/09/01 10:48:54;;;;;;;0.13;0.08;;;;;;;31.39;60.87;99910.84;5371225;26;20115;-88
2023/09/01 10:51:21;;;;;;;0.52;0.28;;;;;;;31.36;60.86;99915.75;5335237;26;20028;-88
2023/09/01 10:53:52;;;;;;;0.37;0.37;;;;;;;31.32;60.87;99912.56;5334394;26;20416;-89
2023/09/01 10:56:20;;;;;;;1.85;0.50;;;;;;;31.46;60.86;99909.09;5334260;26;20056;-89
2023/09/01 10:58:45;;;;;;;4.05;1.37;;;;;;;31.22;60.85;99906.56;5334962;26;20075;-88
2023/09/01 11:01:27;;;;;;;0.00;0.00;;;;;;;31.37;60.86;99907.50;5371651;26;20112;-90
2023/09/01 11:03:52;;;;;;;0.10;0.10;;;;;;;31.43;60.87;99903.25;5371697;26;20127;-90
2023/09/01 11:06:18;;;;;;;0.05;0.05;;;;;;;31.26;60.86;99907.91;5334346;26;20123;-90
2023/09/01 11:08:59;;;;;;;0.00;0.00;;;;;;;31.46;60.88;99911.78;5334483;26;20059;-90
2023/09/01 11:11:25;;;;;;;0.70;0.45;;;;;;;31.56;60.88;99906.19;5334422;26;20060;-90
2023/09/01 11:13:59;;;;;;;0.35;0.35;;;;;;;31.55;60.87;99909.06;5334714;26;20059;-90
2023/09/01 11:16:25;;;;;;;0.15;0.15;;;;;;;31.63;60.87;99904.44;5334565;26;20203;-90
2023/09/01 11:19:03;;;;;;;0.32;0.20;;;;;;;31.76;60.89;99901.16;5334270;26;20120;-90
2023/09/01 11:21:29;;;;;;;0.10;0.00;;;;;;;31.81;60.89;99901.44;5334405;26;20060;-90
2023/09/01 11:23:59;;;;;;;0.37;0.35;;;;;;;31.84;60.89;99900.25;5334490;26;20112;-90
2023/09/01 11:26:24;;;;;;;;;;;;;;;31.85;60.89;99894.69;5334859;26;20071;-89
2023/09/01 11:28:49;;;;;;;0.47;0.47;;;;;;;31.85;60.89;99896.53;5353095;26;19966;-89
2023/09/01 11:31:15;;;;;;;0.00;0.00;;;;;;;31.76;60.89;99906.56;5334120;26;20069;-90
2023/09/01 11:33:42;;;;;;;0.30;0.30;;;;;;;31.84;60.88;99901.09;5334121;26;20099;-90